Time;durP1;ratioP1;P1;durP2;ratioP2;P2;SDS_P1;SDS_P2;PMS_P1;PMS_P2;Temp;Humidity;BMP_temperature;BMP_pressure;BME280_temperature;BME280_humidity;BME280_pressure;Samples;Min_cycle;Max_cycle;Signal;HPM_P1;HPM_P2
2021/08/10 00:00:21;;;;;;;8.20;6.80;;;;;23.20;100537.00;;;;2054689;28;20216;-56
2021/08/10 00:01:21;;;;;;;8.03;7.03;;;;;23.20;100534.00;;;;2055256;28;20219;-56
2021/08/10 00:02:23;;;;;;;6.73;5.80;;;;;23.20;100541.00;;;;2055024;28;20238;-57
2021/08/10 00:03:23;;;;;;;7.70;6.95;;;;;23.20;100540.00;;;;2055374;28;20222;-56
2021/08/10 00:04:24;;;;;;;8.40;7.00;;;;;23.20;100534.00;;;;2063170;28;20234;-54
2021/08/10 00:05:24;;;;;;;10.03;6.47;;;;;23.20;100530.00;;;;2062861;28;20277;-56
2021/08/10 00:06:25;;;;;;;8.57;6.90;;;;;23.20;100531.00;;;;2063116;28;20230;-58
2021/08/10 00:07:25;;;;;;;8.73;6.40;;;;;23.20;100535.00;;;;2063066;28;20591;-55
2021/08/10 00:08:25;;;;;;;8.07;6.63;;;;;23.20;100532.00;;;;2061530;28;20305;-55
2021/08/10 00:09:26;;;;;;;7.60;6.90;;;;;23.20;100533.00;;;;2055865;28;20216;-57
2021/08/10 00:10:26;;;;;;;7.47;6.40;;;;;23.20;100531.00;;;;2054693;28;20742;-56
2021/08/10 00:11:26;;;;;;;7.90;6.90;;;;;23.20;100535.00;;;;2053261;28;20327;-57
2021/08/10 00:12:27;;;;;;;7.83;5.73;;;;;23.20;100535.00;;;;2054828;28;20231;-56
2021/08/10 00:13:27;;;;;;;6.87;6.07;;;;;23.20;100538.00;;;;2055020;28;20230;-55
2021/08/10 00:14:28;;;;;;;8.10;6.80;;;;;23.20;100529.00;;;;2055057;28;20668;-56
2021/08/10 00:15:28;;;;;;;8.07;6.50;;;;;23.20;100535.00;;;;2054976;28;20274;-57
2021/08/10 00:16:29;;;;;;;8.10;6.57;;;;;23.20;100538.00;;;;2054938;28;21624;-56
2021/08/10 00:17:30;;;;;;;9.15;6.50;;;;;23.20;100534.00;;;;2054359;28;20216;-55
2021/08/10 00:18:30;;;;;;;8.20;6.93;;;;;23.20;100532.00;;;;2070472;28;20289;-56
2021/08/10 00:19:30;;;;;;;6.90;6.10;;;;;23.20;100537.00;;;;2070568;28;20277;-56
2021/08/10 00:20:31;;;;;;;6.53;5.20;;;;;23.20;100526.00;;;;2054782;28;20222;-57
2021/08/10 00:21:31;;;;;;;7.07;5.67;;;;;23.20;100530.00;;;;2054885;28;20565;-57
2021/08/10 00:22:31;;;;;;;6.33;5.60;;;;;23.20;100528.00;;;;2055157;28;20226;-56
2021/08/10 00:23:32;;;;;;;6.00;5.23;;;;;23.20;100533.00;;;;2054063;28;20219;-55
2021/08/10 00:24:32;;;;;;;8.10;6.20;;;;;23.20;100531.00;;;;2058180;28;20264;-56
2021/08/10 00:25:32;;;;;;;7.40;6.13;;;;;23.20;100547.00;;;;2057159;28;20215;-55
2021/08/10 00:26:33;;;;;;;8.67;6.47;;;;;23.10;100532.00;;;;2056788;28;20210;-58
2021/08/10 00:27:33;;;;;;;11.87;7.43;;;;;23.00;100539.00;;;;2055016;28;20281;-57
2021/08/10 00:28:33;;;;;;;10.97;6.57;;;;;23.00;100538.00;;;;2054883;28;20223;-56
2021/08/10 00:29:34;;;;;;;7.60;6.33;;;;;23.10;100542.00;;;;2055040;28;20223;-54
2021/08/10 00:30:35;;;;;;;8.23;5.40;;;;;23.10;100537.00;;;;2061629;28;20218;-55
2021/08/10 00:31:35;;;;;;;6.97;5.43;;;;;23.10;100536.00;;;;2062776;28;20257;-55
2021/08/10 00:32:35;;;;;;;7.20;6.03;;;;;23.20;100537.00;;;;2062676;28;20225;-56
2021/08/10 00:33:36;;;;;;;8.17;6.50;;;;;23.20;100532.00;;;;2058180;28;20216;-56
2021/08/10 00:34:36;;;;;;;7.20;6.00;;;;;23.20;100533.00;;;;2060364;28;20223;-55
2021/08/10 00:35:37;;;;;;;5.83;5.23;;;;;23.20;100536.00;;;;2062447;28;20215;-56
2021/08/10 00:36:37;;;;;;;6.60;5.97;;;;;23.20;100533.00;;;;2063018;28;20222;-56
2021/08/10 00:37:37;;;;;;;7.70;5.93;;;;;23.20;100530.00;;;;2062805;28;20273;-56
2021/08/10 00:38:38;;;;;;;7.40;5.77;;;;;23.20;100538.00;;;;2055420;28;20223;-57
2021/08/10 00:39:39;;;;;;;6.70;5.40;;;;;23.20;100537.00;;;;2059144;28;20291;-55
2021/08/10 00:40:39;;;;;;;6.30;5.50;;;;;23.20;100529.00;;;;2062589;28;20218;-57
2021/08/10 00:41:39;;;;;;;6.50;5.20;;;;;23.20;100529.00;;;;2062942;28;20622;-57
2021/08/10 00:42:40;;;;;;;6.27;5.67;;;;;23.20;100527.00;;;;2060231;28;20699;-56
2021/08/10 00:43:41;;;;;;;5.73;5.03;;;;;23.20;100525.00;;;;2054640;28;20223;-57
2021/08/10 00:44:41;;;;;;;5.40;4.85;;;;;23.20;100528.00;;;;2054836;28;20218;-57
2021/08/10 00:45:42;;;;;;;7.67;4.70;;;;;23.20;100527.00;;;;2054683;28;20700;-56
2021/08/10 00:46:42;;;;;;;5.77;4.80;;;;;23.20;100529.00;;;;2055167;28;20223;-56
2021/08/10 00:47:42;;;;;;;5.30;4.23;;;;;23.20;100528.00;;;;2054880;28;20228;-54
2021/08/10 00:48:43;;;;;;;5.97;4.70;;;;;23.20;100534.00;;;;2054670;28;20270;-55
2021/08/10 00:49:43;;;;;;;6.67;4.67;;;;;23.20;100527.00;;;;2054789;28;20215;-56
2021/08/10 00:50:44;;;;;;;5.87;4.60;;;;;23.20;100532.00;;;;2054554;28;20258;-56
2021/08/10 00:51:44;;;;;;;5.63;4.47;;;;;23.20;100530.00;;;;2054933;28;20980;-56
2021/08/10 00:52:45;;;;;;;5.20;4.43;;;;;23.20;100526.00;;;;2053843;28;20598;-54
2021/08/10 00:53:45;;;;;;;4.90;4.23;;;;;23.20;100528.00;;;;2061426;28;20454;-61
2021/08/10 00:54:46;;;;;;;5.07;4.30;;;;;23.20;100522.00;;;;2061234;28;20222;-59
2021/08/10 00:55:46;;;;;;;5.00;4.37;;;;;23.20;100517.00;;;;2065141;28;20256;-57
2021/08/10 00:56:46;;;;;;;4.83;3.90;;;;;23.20;100521.00;;;;2064511;28;20206;-57
2021/08/10 00:57:47;;;;;;;5.60;4.43;;;;;23.20;100525.00;;;;2054079;28;20262;-55
2021/08/10 00:58:47;;;;;;;4.53;3.97;;;;;23.20;100517.00;;;;2053846;28;20220;-56
2021/08/10 00:59:47;;;;;;;6.00;4.20;;;;;23.20;100512.00;;;;2054058;28;20226;-56
2021/08/10 01:00:48;;;;;;;5.07;4.40;;;;;23.20;100520.00;;;;2054696;28;20326;-55
2021/08/10 01:01:48;;;;;;;3.83;3.50;;;;;23.20;100519.00;;;;2056490;28;20747;-57
2021/08/10 01:02:49;;;;;;;4.40;3.90;;;;;23.20;100526.00;;;;2056478;28;20222;-55
2021/08/10 01:03:49;;;;;;;5.80;4.07;;;;;23.20;100526.00;;;;2056422;28;20703;-57
2021/08/10 01:04:49;;;;;;;4.10;3.70;;;;;23.20;100519.00;;;;2056298;28;20310;-55
2021/08/10 01:05:50;;;;;;;5.67;4.10;;;;;23.20;100530.00;;;;2056423;28;20278;-56
2021/08/10 01:07:04;;;;;;;4.80;3.73;;;;;23.20;100530.00;;;;2060393;28;20286;-56
2021/08/10 01:08:11;;;;;;;4.32;3.60;;;;;23.20;100531.00;;;;2062561;28;20222;-58
2021/08/10 01:09:15;;;;;;;4.88;3.60;;;;;23.20;100526.00;;;;2062760;28;20221;-55
2021/08/10 01:10:16;;;;;;;3.70;3.38;;;;;23.20;100519.00;;;;2063575;28;20210;-56
2021/08/10 01:11:21;;;;;;;3.87;3.57;;;;;23.20;100527.00;;;;2064382;28;20686;-56
2021/08/10 01:12:42;;;;;;;4.78;3.95;;;;;23.20;100526.00;;;;2059075;28;20215;-56
2021/08/10 01:13:52;;;;;;;3.85;3.45;;;;;23.20;100520.00;;;;2066735;28;20222;-55
2021/08/10 01:15:08;;;;;;;3.95;3.15;;;;;23.10;100522.00;;;;2064845;28;20265;-55
2021/08/10 01:16:33;;;;;;;3.92;3.53;;;;;23.10;100519.00;;;;2071917;28;20233;-55
2021/08/10 01:17:58;;;;;;;4.70;3.30;;;;;23.20;100514.00;;;;2071656;28;20612;-55
2021/08/10 01:19:04;;;;;;;4.13;3.55;;;;;23.20;100521.00;;;;2066662;28;20241;-54
2021/08/10 01:20:42;;;;;;;3.30;2.75;;;;;23.20;100514.00;;;;2069856;28;20314;-56
2021/08/10 01:21:44;;;;;;;3.60;2.88;;;;;23.20;100520.00;;;;2050163;28;20216;-55
2021/08/10 01:22:47;;;;;;;3.95;3.35;;;;;23.10;100517.00;;;;2071618;28;20293;-55
2021/08/10 01:23:50;;;;;;;3.35;3.05;;;;;23.10;100529.00;;;;2071637;28;20217;-56
2021/08/10 01:24:55;;;;;;;3.97;3.20;;;;;23.20;100521.00;;;;2056010;28;20212;-57
2021/08/10 01:26:30;;;;;;;3.67;3.10;;;;;23.20;100524.00;;;;2048382;28;20732;-58
2021/08/10 01:27:57;;;;;;;3.95;3.03;;;;;23.10;100524.00;;;;2051946;28;20607;-56
2021/08/10 01:29:14;;;;;;;3.58;3.10;;;;;23.20;100520.00;;;;2063213;28;20252;-57
2021/08/10 01:30:22;;;;;;;3.40;3.10;;;;;23.20;100525.00;;;;2056206;28;20219;-55
2021/08/10 01:31:23;;;;;;;3.10;2.60;;;;;23.20;100524.00;;;;2058721;28;20223;-56
2021/08/10 01:32:24;;;;;;;3.08;2.60;;;;;23.20;100517.00;;;;2068054;28;20217;-54
2021/08/10 01:33:25;;;;;;;3.50;3.00;;;;;23.20;100515.00;;;;2070938;28;20663;-56
2021/08/10 01:34:29;;;;;;;3.30;2.90;;;;;23.20;100519.00;;;;2065222;28;20211;-55
2021/08/10 01:35:30;;;;;;;4.60;2.88;;;;;23.20;100512.00;;;;2063461;28;20254;-56
2021/08/10 01:36:31;;;;;;;3.60;2.88;;;;;23.20;100510.00;;;;2063932;28;20222;-56
2021/08/10 01:37:31;;;;;;;3.60;2.80;;;;;23.20;100510.00;;;;2063386;28;20214;-56
2021/08/10 01:38:31;;;;;;;3.23;2.93;;;;;23.20;100502.00;;;;2069045;28;20458;-56
2021/08/10 01:39:32;;;;;;;2.83;2.50;;;;;23.10;100497.00;;;;2074284;28;20214;-57
2021/08/10 01:40:32;;;;;;;3.40;2.97;;;;;23.10;100510.00;;;;2055030;28;20223;-57
2021/08/10 01:41:33;;;;;;;3.20;2.70;;;;;23.10;100501.00;;;;2067629;28;20572;-54
2021/08/10 01:42:33;;;;;;;3.30;3.00;;;;;23.10;100488.00;;;;2063489;28;20226;-57
2021/08/10 01:43:34;;;;;;;3.33;2.73;;;;;23.10;100504.00;;;;2055544;28;20223;-55
2021/08/10 01:44:34;;;;;;;3.17;2.70;;;;;23.10;100499.00;;;;2064722;28;20218;-56
2021/08/10 01:45:37;;;;;;;3.77;2.50;;;;;23.10;100507.00;;;;2058552;28;20230;-57
2021/08/10 01:46:38;;;;;;;4.00;2.88;;;;;23.10;100500.00;;;;2051856;28;20310;-58
2021/08/10 01:47:39;;;;;;;3.42;3.10;;;;;23.10;100496.00;;;;2060233;28;20238;-55
2021/08/10 01:48:39;;;;;;;3.07;2.50;;;;;23.10;100496.00;;;;2064288;28;20668;-57
2021/08/10 01:49:40;;;;;;;3.40;2.70;;;;;23.10;100492.00;;;;2059336;28;20215;-54
2021/08/10 01:50:40;;;;;;;3.83;2.77;;;;;23.10;100494.00;;;;2051170;28;20215;-56
2021/08/10 01:51:40;;;;;;;4.37;3.27;;;;;23.10;100492.00;;;;2064912;28;20601;-56
2021/08/10 01:52:41;;;;;;;3.90;2.67;;;;;23.10;100500.00;;;;2061788;28;20210;-57
2021/08/10 01:53:42;;;;;;;3.80;2.77;;;;;23.10;100509.00;;;;2052645;28;20743;-57
2021/08/10 01:54:42;;;;;;;3.60;2.67;;;;;23.10;100503.00;;;;2069623;28;20503;-55
2021/08/10 01:55:44;;;;;;;4.17;2.50;;;;;23.10;100507.00;;;;2055275;28;20208;-56
2021/08/10 01:56:44;;;;;;;3.00;2.70;;;;;23.10;100509.00;;;;2045916;28;20220;-56
2021/08/10 01:57:45;;;;;;;3.30;2.40;;;;;23.10;100503.00;;;;2051381;28;20664;-55
2021/08/10 01:58:46;;;;;;;4.97;2.87;;;;;23.10;100498.00;;;;2055206;28;20220;-57
2021/08/10 01:59:47;;;;;;;3.25;2.30;;;;;23.10;100507.00;;;;2082677;28;20224;-58
2021/08/10 02:00:48;;;;;;;3.67;2.60;;;;;23.10;100502.00;;;;2069505;28;20614;-56
2021/08/10 02:01:48;;;;;;;3.10;2.80;;;;;23.10;100498.00;;;;2056030;28;20231;-57
2021/08/10 02:02:49;;;;;;;4.20;2.37;;;;;23.10;100493.00;;;;2065611;28;20226;-58
2021/08/10 02:03:49;;;;;;;3.00;2.30;;;;;23.10;100496.00;;;;2062506;28;20217;-56
2021/08/10 02:04:50;;;;;;;2.40;2.20;;;;;23.10;100499.00;;;;2047976;28;20224;-55
2021/08/10 02:05:50;;;;;;;3.47;2.30;;;;;23.10;100491.00;;;;2056074;28;20227;-56
2021/08/10 02:06:51;;;;;;;4.20;2.60;;;;;23.10;100494.00;;;;2061897;28;20222;-58
2021/08/10 02:07:51;;;;;;;2.87;2.33;;;;;23.10;100490.00;;;;2059891;28;20223;-56
2021/08/10 02:08:51;;;;;;;2.80;2.40;;;;;23.10;100484.00;;;;2062557;28;20238;-57
2021/08/10 02:09:53;;;;;;;3.67;2.20;;;;;23.10;100482.00;;;;2063123;28;20599;-56
2021/08/10 02:10:53;;;;;;;3.13;2.03;;;;;23.10;100488.00;;;;2067304;28;20210;-57
2021/08/10 02:11:54;;;;;;;2.87;2.57;;;;;23.10;100484.00;;;;2063129;28;20668;-55
2021/08/10 02:12:54;;;;;;;4.93;2.33;;;;;23.10;100487.00;;;;2049618;28;20227;-56
2021/08/10 02:13:55;;;;;;;4.83;2.37;;;;;23.10;100483.00;;;;2054949;28;20258;-58
2021/08/10 02:14:57;;;;;;;2.57;2.10;;;;;23.10;100489.00;;;;2059797;28;20215;-57
2021/08/10 02:15:57;;;;;;;2.70;2.30;;;;;23.10;100485.00;;;;2059627;28;20493;-55
2021/08/10 02:17:00;;;;;;;2.77;2.20;;;;;23.10;100490.00;;;;2067206;28;20222;-55
2021/08/10 02:18:01;;;;;;;5.40;2.30;;;;;23.10;100500.00;;;;2067232;28;20662;-57
2021/08/10 02:19:01;;;;;;;2.60;2.20;;;;;23.10;100497.00;;;;2063774;28;20211;-58
2021/08/10 02:20:02;;;;;;;2.00;1.80;;;;;23.10;100498.00;;;;2067476;28;20715;-57
2021/08/10 02:21:03;;;;;;;4.83;2.17;;;;;23.10;100490.00;;;;2067789;28;20233;-54
2021/08/10 02:22:05;;;;;;;3.75;2.58;;;;;23.10;100493.00;;;;2055589;28;20226;-55
2021/08/10 02:23:05;;;;;;;2.40;2.20;;;;;23.10;100493.00;;;;2063294;28;20221;-56
2021/08/10 02:24:11;;;;;;;2.43;2.10;;;;;23.10;100500.00;;;;2075313;28;20241;-54
2021/08/10 02:25:11;;;;;;;2.22;1.80;;;;;23.10;100498.00;;;;2070375;28;20618;-56
2021/08/10 02:26:12;;;;;;;4.40;2.10;;;;;23.10;100500.00;;;;2063074;28;20227;-57
2021/08/10 02:27:17;;;;;;;2.00;1.80;;;;;23.10;100506.00;;;;2063075;28;20321;-57
2021/08/10 02:28:18;;;;;;;3.13;2.00;;;;;23.10;100499.00;;;;2063218;28;20229;-56
2021/08/10 02:29:18;;;;;;;2.70;2.37;;;;;23.10;100507.00;;;;2063218;28;20219;-56
2021/08/10 02:30:37;;;;;;;2.60;2.13;;;;;23.10;100501.00;;;;2062684;28;20307;-55
2021/08/10 02:31:37;;;;;;;2.60;1.70;;;;;23.10;100502.00;;;;2067676;28;20590;-55
2021/08/10 02:32:38;;;;;;;2.40;2.03;;;;;23.10;100500.00;;;;2069882;28;20370;-56
2021/08/10 02:33:39;;;;;;;2.13;1.87;;;;;23.00;100501.00;;;;2055073;28;20305;-54
2021/08/10 02:34:41;;;;;;;4.45;2.13;;;;;23.00;100494.00;;;;2060536;28;20967;-56
2021/08/10 02:35:41;;;;;;;2.80;2.03;;;;;23.00;100505.00;;;;2056315;28;20235;-56
2021/08/10 02:36:42;;;;;;;3.10;2.07;;;;;23.00;100509.00;;;;2055035;28;20677;-58
2021/08/10 02:37:42;;;;;;;3.03;1.73;;;;;23.00;100498.00;;;;2049816;28;20204;-56
2021/08/10 02:38:42;;;;;;;2.40;2.03;;;;;23.00;100503.00;;;;2055074;28;20246;-55
2021/08/10 02:39:44;;;;;;;2.73;2.03;;;;;23.00;100498.00;;;;2054821;28;20724;-54
2021/08/10 02:40:45;;;;;;;2.20;2.00;;;;;23.00;100499.00;;;;2054655;28;20207;-56
2021/08/10 02:41:46;;;;;;;3.30;2.00;;;;;23.00;100501.00;;;;2057414;28;20275;-54
2021/08/10 02:42:51;;;;;;;3.53;1.73;;;;;23.10;100498.00;;;;2063166;28;20293;-57
2021/08/10 02:43:51;;;;;;;2.35;2.15;;;;;23.10;100502.00;;;;2067576;28;20597;-55
2021/08/10 02:44:51;;;;;;;1.97;1.87;;;;;23.00;100495.00;;;;2065996;28;20207;-56
2021/08/10 02:45:52;;;;;;;2.50;2.20;;;;;23.00;100507.00;;;;2067088;28;20888;-57
2021/08/10 02:46:52;;;;;;;2.70;2.00;;;;;23.00;100503.00;;;;2079192;28;20228;-57
2021/08/10 02:47:56;;;;;;;3.07;2.10;;;;;23.00;100505.00;;;;2056878;28;20557;-56
2021/08/10 02:48:56;;;;;;;3.28;1.60;;;;;23.00;100502.00;;;;2059173;28;20218;-57
2021/08/10 02:49:57;;;;;;;2.63;2.30;;;;;23.00;100513.00;;;;2067123;28;20219;-55
2021/08/10 02:50:57;;;;;;;2.57;1.83;;;;;23.00;100506.00;;;;2065947;28;20665;-55
2021/08/10 02:51:57;;;;;;;2.63;2.00;;;;;23.00;100503.00;;;;2063886;28;20273;-55
2021/08/10 02:52:58;;;;;;;2.70;2.17;;;;;23.00;100508.00;;;;2067863;28;20218;-56
2021/08/10 02:53:58;;;;;;;2.87;1.90;;;;;23.00;100499.00;;;;2062490;28;20218;-57
2021/08/10 02:54:59;;;;;;;4.03;2.20;;;;;23.00;100498.00;;;;2061683;28;20745;-56
2021/08/10 02:56:12;;;;;;;3.30;2.33;;;;;23.00;100506.00;;;;2062850;28;20223;-57
2021/08/10 02:57:21;;;;;;;2.40;2.00;;;;;23.00;100511.00;;;;2057464;28;20324;-55
2021/08/10 02:58:24;;;;;;;3.42;1.88;;;;;23.00;100510.00;;;;2057202;28;20216;-57
2021/08/10 02:59:31;;;;;;;3.38;2.00;;;;;23.00;100508.00;;;;2064148;28;20735;-57
2021/08/10 03:00:36;;;;;;;2.47;1.95;;;;;23.00;100514.00;;;;2070648;28;20222;-57
2021/08/10 03:01:40;;;;;;;3.70;2.25;;;;;23.00;100518.00;;;;2059930;28;20555;-55
2021/08/10 03:02:42;;;;;;;3.20;2.15;;;;;23.00;100516.00;;;;2058916;28;20700;-55
2021/08/10 03:03:43;;;;;;;2.58;2.00;;;;;23.00;100521.00;;;;2050038;28;20220;-57
2021/08/10 03:05:07;;;;;;;2.33;2.10;;;;;23.00;100526.00;;;;2054995;28;20298;-58
2021/08/10 03:06:08;;;;;;;2.78;1.85;;;;;23.00;100524.00;;;;2053619;28;20233;-55
2021/08/10 03:07:08;;;;;;;2.63;1.90;;;;;23.00;100518.00;;;;2070992;28;20650;-56
2021/08/10 03:08:12;;;;;;;2.80;1.97;;;;;23.00;100524.00;;;;2070768;28;20675;-55
2021/08/10 03:09:13;;;;;;;3.33;1.73;;;;;23.00;100532.00;;;;2070427;28;20705;-57
2021/08/10 03:10:13;;;;;;;2.60;2.20;;;;;23.00;100542.00;;;;2070504;28;20296;-56
2021/08/10 03:11:13;;;;;;;2.20;2.00;;;;;23.00;100537.00;;;;2070876;28;20594;-57
2021/08/10 03:12:14;;;;;;;2.57;1.77;;;;;23.00;100534.00;;;;2070677;28;20222;-56
2021/08/10 03:13:14;;;;;;;2.50;2.10;;;;;23.00;100530.00;;;;2071010;28;20218;-56
2021/08/10 03:14:15;;;;;;;3.20;1.73;;;;;23.00;100532.00;;;;2062760;28;20226;-54
2021/08/10 03:15:17;;;;;;;2.63;1.60;;;;;23.00;100534.00;;;;2062789;28;20233;-54
2021/08/10 03:16:17;;;;;;;2.70;2.28;;;;;23.00;100540.00;;;;2062827;28;20583;-55
2021/08/10 03:17:18;;;;;;;2.70;1.87;;;;;23.00;100548.00;;;;2068165;28;20309;-55
2021/08/10 03:18:20;;;;;;;1.93;1.73;;;;;23.00;100535.00;;;;2070879;28;20214;-56
2021/08/10 03:19:21;;;;;;;2.60;1.83;;;;;23.00;100538.00;;;;2070656;28;20211;-56
2021/08/10 03:20:21;;;;;;;4.20;2.30;;;;;23.00;100549.00;;;;2070574;28;20206;-55
2021/08/10 03:21:21;;;;;;;3.60;1.97;;;;;23.00;100543.00;;;;2067427;28;20696;-55
2021/08/10 03:22:22;;;;;;;2.60;2.13;;;;;23.00;100544.00;;;;2074906;28;20667;-54
2021/08/10 03:23:22;;;;;;;4.43;2.60;;;;;23.00;100545.00;;;;2059031;28;20204;-56
2021/08/10 03:24:23;;;;;;;6.37;2.53;;;;;23.00;100550.00;;;;2057884;28;20771;-56
2021/08/10 03:25:23;;;;;;;2.23;1.83;;;;;23.00;100552.00;;;;2056424;28;20211;-55
2021/08/10 03:26:24;;;;;;;4.00;2.37;;;;;23.00;100549.00;;;;2062055;28;20215;-56
2021/08/10 03:27:24;;;;;;;2.80;2.30;;;;;23.00;100544.00;;;;2079040;28;20206;-56
2021/08/10 03:28:26;;;;;;;3.70;2.50;;;;;23.00;100545.00;;;;2061080;28;20642;-56
2021/08/10 03:29:26;;;;;;;2.40;1.88;;;;;23.00;100553.00;;;;2066476;28;20211;-55
2021/08/10 03:30:27;;;;;;;2.50;2.00;;;;;23.00;100548.00;;;;2062322;28;20262;-56
2021/08/10 03:31:27;;;;;;;3.47;2.27;;;;;23.00;100551.00;;;;2062467;28;20734;-55
2021/08/10 03:32:27;;;;;;;2.67;1.87;;;;;23.00;100543.00;;;;2060071;28;20221;-56
2021/08/10 03:33:29;;;;;;;2.47;1.87;;;;;23.00;100541.00;;;;2062791;28;20230;-56
2021/08/10 03:34:30;;;;;;;3.40;2.25;;;;;23.00;100549.00;;;;2054521;28;20308;-55
2021/08/10 03:35:31;;;;;;;2.15;1.80;;;;;23.00;100556.00;;;;2054937;28;20330;-55
2021/08/10 03:36:31;;;;;;;4.77;2.40;;;;;23.00;100542.00;;;;2070907;28;20603;-56
2021/08/10 03:37:32;;;;;;;2.13;1.60;;;;;23.00;100552.00;;;;2067927;28;20324;-56
2021/08/10 03:38:35;;;;;;;3.17;1.80;;;;;23.00;100550.00;;;;2062632;28;20227;-54
2021/08/10 03:39:37;;;;;;;2.20;2.00;;;;;23.00;100555.00;;;;2070455;28;20597;-55
2021/08/10 03:40:38;;;;;;;3.78;2.00;;;;;23.00;100551.00;;;;2062890;28;20931;-56
2021/08/10 03:41:38;;;;;;;2.70;1.90;;;;;23.00;100548.00;;;;2053843;28;20219;-55
2021/08/10 03:42:39;;;;;;;2.63;1.90;;;;;23.00;100553.00;;;;2054549;28;20219;-55
2021/08/10 03:43:39;;;;;;;2.23;1.77;;;;;23.00;100553.00;;;;2066572;28;20218;-56
2021/08/10 03:44:42;;;;;;;3.63;2.13;;;;;23.00;100561.00;;;;2061774;28;20273;-56
2021/08/10 03:45:42;;;;;;;2.75;2.05;;;;;23.00;100558.00;;;;2067757;28;20676;-56
2021/08/10 03:46:42;;;;;;;3.40;1.80;;;;;23.00;100565.00;;;;2078906;28;20228;-55
2021/08/10 03:47:43;;;;;;;3.37;2.07;;;;;22.90;100571.00;;;;2066306;28;20214;-56
2021/08/10 03:48:44;;;;;;;1.87;1.67;;;;;23.00;100569.00;;;;2046858;28;20237;-56
2021/08/10 03:49:45;;;;;;;2.42;2.00;;;;;23.00;100573.00;;;;2059484;28;20600;-54
2021/08/10 03:50:45;;;;;;;2.33;1.80;;;;;23.00;100582.00;;;;2070853;28;20226;-55
2021/08/10 03:51:46;;;;;;;2.43;1.90;;;;;23.00;100572.00;;;;2064200;28;20280;-55
2021/08/10 03:52:49;;;;;;;3.27;2.20;;;;;23.00;100571.00;;;;2062603;28;20306;-54
2021/08/10 03:53:49;;;;;;;1.98;1.75;;;;;23.00;100573.00;;;;2056662;28;20220;-55
2021/08/10 03:54:50;;;;;;;2.07;1.83;;;;;22.90;100576.00;;;;2054717;28;20278;-55
2021/08/10 03:55:50;;;;;;;2.30;1.77;;;;;23.00;100569.00;;;;2066978;28;20205;-56
2021/08/10 03:56:51;;;;;;;2.00;1.70;;;;;23.00;100580.00;;;;2066211;28;20544;-56
2021/08/10 03:57:52;;;;;;;3.15;1.83;;;;;22.90;100574.00;;;;2062611;28;20660;-56
2021/08/10 03:58:55;;;;;;;2.90;1.80;;;;;22.90;100573.00;;;;2062630;28;20302;-56
2021/08/10 03:59:56;;;;;;;2.95;2.10;;;;;22.90;100570.00;;;;2062182;28;20725;-54
2021/08/10 04:00:56;;;;;;;3.83;1.90;;;;;22.90;100562.00;;;;2054280;28;20304;-56
2021/08/10 04:01:56;;;;;;;2.50;1.90;;;;;22.90;100557.00;;;;2063107;28;20211;-54
2021/08/10 04:02:57;;;;;;;3.33;1.67;;;;;22.90;100558.00;;;;2078582;28;20213;-55
2021/08/10 04:03:57;;;;;;;2.17;1.87;;;;;22.90;100549.00;;;;2054237;28;20219;-56
2021/08/10 04:04:57;;;;;;;2.77;1.70;;;;;23.00;100556.00;;;;2070273;28;20225;-54
2021/08/10 04:05:59;;;;;;;2.70;2.00;;;;;22.90;100537.00;;;;2072289;28;20683;-56
2021/08/10 04:07:00;;;;;;;2.65;1.80;;;;;22.90;100534.00;;;;2064670;28;20218;-56
2021/08/10 04:08:01;;;;;;;2.67;1.90;;;;;23.00;100518.00;;;;2067648;28;20216;-56
2021/08/10 04:09:01;;;;;;;3.37;2.00;;;;;22.90;100514.00;;;;2048583;28;20307;-55
2021/08/10 04:10:02;;;;;;;2.73;2.20;;;;;23.00;100516.00;;;;2056443;28;20991;-54
2021/08/10 04:11:03;;;;;;;2.85;2.10;;;;;22.90;100506.00;;;;2056726;28;20230;-55
2021/08/10 04:12:05;;;;;;;2.93;1.70;;;;;22.90;100519.00;;;;2056485;28;20215;-56
2021/08/10 04:13:07;;;;;;;3.65;2.08;;;;;22.90;100527.00;;;;2054527;28;20219;-55
2021/08/10 04:14:08;;;;;;;2.53;2.28;;;;;22.90;100533.00;;;;2058923;28;21171;-56
2021/08/10 04:15:10;;;;;;;3.43;2.33;;;;;22.90;100523.00;;;;2070529;28;20222;-56
2021/08/10 04:16:10;;;;;;;3.15;2.38;;;;;22.90;100519.00;;;;2048841;28;20255;-56
2021/08/10 04:17:11;;;;;;;2.80;2.10;;;;;22.90;100520.00;;;;2054443;28;20631;-55
2021/08/10 04:18:15;;;;;;;3.23;2.30;;;;;23.00;100508.00;;;;2070266;28;20201;-54
2021/08/10 04:19:15;;;;;;;2.35;2.10;;;;;22.90;100507.00;;;;2070434;28;20214;-56
2021/08/10 04:20:17;;;;;;;3.10;2.20;;;;;22.90;100512.00;;;;2054248;28;20273;-55
2021/08/10 04:21:25;;;;;;;2.30;1.92;;;;;22.90;100507.00;;;;2051939;28;20215;-55
2021/08/10 04:22:25;;;;;;;2.75;2.30;;;;;22.90;100505.00;;;;2062309;28;20215;-54
2021/08/10 04:23:25;;;;;;;3.57;2.30;;;;;23.00;100511.00;;;;2055214;28;20211;-56
2021/08/10 04:24:26;;;;;;;2.50;2.17;;;;;22.90;100505.00;;;;2067695;28;20242;-54
2021/08/10 04:25:26;;;;;;;2.23;2.00;;;;;22.90;100507.00;;;;2063435;28;20219;-55
2021/08/10 04:26:26;;;;;;;2.60;2.37;;;;;22.90;100503.00;;;;2063307;28;20211;-54
2021/08/10 04:27:27;;;;;;;2.97;2.67;;;;;23.00;100503.00;;;;2063220;28;20217;-56
2021/08/10 04:28:27;;;;;;;2.20;1.87;;;;;23.00;100505.00;;;;2063014;28;20226;-56
2021/08/10 04:29:27;;;;;;;2.30;2.00;;;;;22.90;100500.00;;;;2062819;28;21076;-56
2021/08/10 04:30:28;;;;;;;2.57;1.97;;;;;22.90;100506.00;;;;2062768;28;20222;-55
2021/08/10 04:31:28;;;;;;;3.80;2.47;;;;;22.90;100504.00;;;;2063064;28;20218;-56
2021/08/10 04:32:28;;;;;;;2.63;2.43;;;;;22.90;100488.00;;;;2063071;28;20222;-55
2021/08/10 04:33:29;;;;;;;2.60;2.30;;;;;23.00;100503.00;;;;2063021;28;20274;-55
2021/08/10 04:34:29;;;;;;;2.50;2.00;;;;;22.90;100496.00;;;;2062818;28;20195;-56
2021/08/10 04:35:30;;;;;;;3.20;2.40;;;;;23.00;100502.00;;;;2062715;28;20684;-54
2021/08/10 04:36:30;;;;;;;2.63;2.20;;;;;22.90;100503.00;;;;2062930;28;20667;-54
2021/08/10 04:37:31;;;;;;;5.13;2.53;;;;;22.90;100499.00;;;;2062745;28;20549;-54
2021/08/10 04:38:31;;;;;;;2.23;2.03;;;;;23.00;100494.00;;;;2063182;28;20260;-55
2021/08/10 04:39:31;;;;;;;3.30;2.40;;;;;22.90;100498.00;;;;2062851;28;20199;-55
2021/08/10 04:40:32;;;;;;;3.53;2.10;;;;;22.90;100502.00;;;;2062657;28;20703;-55
2021/08/10 04:41:32;;;;;;;2.30;1.90;;;;;22.90;100506.00;;;;2063025;28;20207;-54
2021/08/10 04:42:35;;;;;;;2.50;2.00;;;;;22.90;100515.00;;;;2062970;28;20807;-55
2021/08/10 04:43:36;;;;;;;2.85;2.25;;;;;22.90;100511.00;;;;2062986;28;20268;-56
2021/08/10 04:44:36;;;;;;;2.13;1.93;;;;;22.90;100520.00;;;;2062703;28;20219;-54
2021/08/10 04:45:36;;;;;;;3.20;2.27;;;;;23.00;100527.00;;;;2062796;28;20247;-54
2021/08/10 04:46:37;;;;;;;2.77;1.90;;;;;22.90;100518.00;;;;2066142;28;20337;-54
2021/08/10 04:47:37;;;;;;;4.40;2.20;;;;;22.90;100518.00;;;;2064288;28;20214;-55
2021/08/10 04:48:37;;;;;;;2.73;2.20;;;;;22.90;100521.00;;;;2070957;28;20210;-56
2021/08/10 04:49:38;;;;;;;3.10;2.20;;;;;22.90;100509.00;;;;2071185;28;20618;-56
2021/08/10 04:50:38;;;;;;;3.07;2.47;;;;;22.90;100517.00;;;;2066880;28;20238;-55
2021/08/10 04:51:38;;;;;;;2.33;1.90;;;;;22.90;100511.00;;;;2062261;28;20288;-55
2021/08/10 04:52:39;;;;;;;2.33;2.10;;;;;22.90;100521.00;;;;2062799;28;20203;-54
2021/08/10 04:53:39;;;;;;;2.47;2.10;;;;;22.90;100524.00;;;;2067467;28;20216;-54
2021/08/10 04:54:40;;;;;;;3.40;2.23;;;;;22.90;100526.00;;;;2069228;28;20229;-55
2021/08/10 04:55:40;;;;;;;4.20;2.30;;;;;22.90;100517.00;;;;2066280;28;20210;-56
2021/08/10 04:56:40;;;;;;;3.73;2.47;;;;;22.90;100522.00;;;;2063915;28;20735;-55
2021/08/10 04:57:41;;;;;;;3.70;2.57;;;;;22.90;100527.00;;;;2062961;28;20680;-56
2021/08/10 04:58:41;;;;;;;3.90;2.57;;;;;22.90;100518.00;;;;2062826;28;20584;-54
2021/08/10 04:59:42;;;;;;;2.47;2.10;;;;;22.90;100522.00;;;;2063010;28;20210;-54
2021/08/10 05:00:42;;;;;;;3.03;2.20;;;;;22.90;100531.00;;;;2062628;28;20238;-56
2021/08/10 05:01:44;;;;;;;3.50;2.43;;;;;22.90;100526.00;;;;2062479;28;20203;-55
2021/08/10 05:02:44;;;;;;;4.35;2.58;;;;;23.00;100524.00;;;;2062834;28;20694;-55
2021/08/10 05:03:45;;;;;;;5.47;2.90;;;;;23.00;100526.00;;;;2062556;28;20309;-55
2021/08/10 05:04:45;;;;;;;3.20;2.90;;;;;23.10;100534.00;;;;2062959;28;20227;-56
2021/08/10 05:05:48;;;;;;;4.50;2.97;;;;;23.00;100522.00;;;;2062860;28;20222;-54